Time;durP1;ratioP1;P1;durP2;ratioP2;P2;SDS_P1;SDS_P2;PMS_P1;PMS_P2;Temp;Humidity;BMP_temperature;BMP_pressure;BME280_temperature;BME280_humidity;BME280_pressure;Samples;Min_cycle;Max_cycle;Signal;HPM_P1;HPM_P2
2022/05/09 00:02:10;;;;;;;12.07;3.35;;;8.50;99.90;;;;;;4990907;28;20035;-89
2022/05/09 00:04:37;;;;;;;12.85;2.92;;;8.40;99.90;;;;;;4991511;28;20527;-89
2022/05/09 00:07:03;;;;;;;11.02;2.70;;;8.40;99.90;;;;;;4975527;28;20034;-89
2022/05/09 00:09:29;;;;;;;16.50;3.40;;;8.40;99.90;;;;;;4992355;28;20038;-89
2022/05/09 00:11:54;;;;;;;11.70;3.35;;;8.40;99.90;;;;;;4990710;28;20042;-88
2022/05/09 00:14:20;;;;;;;19.45;3.42;;;8.40;99.90;;;;;;4972277;28;20136;-89
2022/05/09 00:16:46;;;;;;;10.95;3.13;;;8.30;99.90;;;;;;4957138;28;20106;-89
2022/05/09 00:19:17;;;;;;;15.60;3.33;;;8.30;99.90;;;;;;4978750;28;20054;-89
2022/05/09 00:21:43;;;;;;;12.40;3.60;;;8.30;99.90;;;;;;4972049;28;20051;-89
2022/05/09 00:24:13;;;;;;;12.07;2.90;;;8.20;99.90;;;;;;4972289;28;20046;-89
2022/05/09 00:26:39;;;;;;;13.35;3.22;;;8.20;99.90;;;;;;4972436;28;20053;-90
2022/05/09 00:29:06;;;;;;;13.25;3.20;;;8.20;99.90;;;;;;4972027;28;20151;-90
2022/05/09 00:31:32;;;;;;;16.90;3.53;;;8.20;99.90;;;;;;4971701;28;20035;-90
2022/05/09 00:33:57;;;;;;;14.02;3.50;;;8.20;99.90;;;;;;4955885;28;20050;-90
2022/05/09 00:36:23;;;;;;;13.40;3.63;;;8.20;99.90;;;;;;4972404;28;20055;-89
2022/05/09 00:38:51;;;;;;;15.40;3.40;;;8.20;99.90;;;;;;4955691;28;20041;-90
2022/05/09 00:41:37;;;;;;;16.90;5.22;;;8.20;99.90;;;;;;4971769;28;20045;-90
2022/05/09 00:44:10;;;;;;;12.95;4.40;;;8.20;99.90;;;;;;4971794;28;20057;-90
2022/05/09 00:46:42;;;;;;;15.23;3.65;;;8.20;99.90;;;;;;4971354;28;20641;-90
2022/05/09 00:49:22;;;;;;;16.35;4.47;;;8.20;99.90;;;;;;4971278;28;20125;-90
2022/05/09 00:51:58;;;;;;;17.00;3.95;;;8.20;99.90;;;;;;4970182;28;20084;-90
2022/05/09 00:54:26;;;;;;;13.70;3.78;;;8.20;99.90;;;;;;4998099;28;20049;-89
2022/05/09 00:57:00;;;;;;;12.30;3.67;;;8.20;99.90;;;;;;4995004;28;20034;-89
2022/05/09 00:59:30;;;;;;;12.98;3.40;;;8.20;99.90;;;;;;4992258;28;20034;-89
2022/05/09 01:01:57;;;;;;;12.23;3.97;;;8.10;99.90;;;;;;4989310;28;20058;-89
2022/05/09 01:04:26;;;;;;;16.42;3.35;;;8.10;99.90;;;;;;4999102;28;20547;-89
2022/05/09 01:06:54;;;;;;;12.50;3.50;;;8.10;99.90;;;;;;5006639;28;20085;-89
2022/05/09 01:09:19;;;;;;;15.02;5.68;;;8.00;99.90;;;;;;4993843;28;20129;-89
2022/05/09 01:11:47;;;;;;;13.23;3.17;;;8.00;99.90;;;;;;4975411;28;20476;-89
2022/05/09 01:14:19;;;;;;;15.07;3.88;;;7.90;99.90;;;;;;4975678;28;20035;-89
2022/05/09 01:16:46;;;;;;;14.65;3.55;;;7.90;99.90;;;;;;4990823;28;20045;-89
2022/05/09 01:19:30;;;;;;;12.77;3.75;;;7.90;99.90;;;;;;4991598;28;20396;-89
2022/05/09 01:21:57;;;;;;;11.45;3.55;;;7.90;99.90;;;;;;4990315;28;20100;-89
2022/05/09 01:24:24;;;;;;;13.40;3.33;;;7.80;99.90;;;;;;4990989;28;20161;-90
2022/05/09 01:26:51;;;;;;;11.65;3.65;;;7.80;99.90;;;;;;4990902;28;20050;-89
2022/05/09 01:29:16;;;;;;;14.43;3.50;;;7.80;99.90;;;;;;4974116;28;20090;-89
2022/05/09 01:31:43;;;;;;;11.77;3.60;;;7.70;99.90;;;;;;4971360;28;20074;-90
2022/05/09 01:34:10;;;;;;;11.90;3.60;;;7.60;99.90;;;;;;4979932;28;20039;-89
2022/05/09 01:36:38;;;;;;;10.23;3.55;;;7.60;99.90;;;;;;4991534;28;20034;-89
2022/05/09 01:39:07;;;;;;;14.55;3.28;;;7.60;99.90;;;;;;4983976;28;20038;-90
2022/05/09 01:41:41;;;;;;;11.02;3.50;;;7.50;99.90;;;;;;4970797;28;20035;-89
2022/05/09 01:44:07;;;;;;;14.57;3.47;;;7.60;99.90;;;;;;4971411;28;20556;-89
2022/05/09 01:46:33;;;;;;;13.70;4.13;;;7.50;99.90;;;;;;4957757;28;20034;-89
2022/05/09 01:52:04;;;;;;;12.43;2.90;;;7.50;99.90;;;;;;4952594;28;20065;-89
2022/05/09 01:54:30;;;;;;;14.00;3.72;;;7.40;99.90;;;;;;4934767;29;20062;-89
2022/05/09 01:56:56;;;;;;;12.57;3.63;;;7.40;99.90;;;;;;4934959;29;20047;-89
2022/05/09 01:59:22;;;;;;;8.25;2.88;;;7.40;99.90;;;;;;4934248;29;20141;-89
2022/05/09 02:01:52;;;;;;;10.88;4.15;;;7.30;99.90;;;;;;4934406;29;20047;-89
2022/05/09 02:04:18;;;;;;;11.98;3.42;;;7.30;99.90;;;;;;4934813;29;20129;-89
2022/05/09 02:06:44;;;;;;;11.73;3.03;;;7.30;99.90;;;;;;4951913;28;20051;-89
2022/05/09 02:09:10;;;;;;;8.80;3.08;;;7.20;99.90;;;;;;4953974;28;20137;-90
2022/05/09 02:11:36;;;;;;;9.20;2.90;;;7.10;99.90;;;;;;4952843;28;20066;-90
2022/05/09 02:14:02;;;;;;;10.98;2.95;;;7.00;99.90;;;;;;4953839;28;20086;-89
2022/05/09 02:16:28;;;;;;;11.57;2.83;;;7.00;99.90;;;;;;4948794;29;20047;-90
2022/05/09 02:18:53;;;;;;;9.18;3.08;;;6.90;99.90;;;;;;4969724;28;20398;-90
2022/05/09 02:21:19;;;;;;;10.50;3.20;;;6.90;99.90;;;;;;4956739;28;20042;-90
2022/05/09 02:23:45;;;;;;;10.65;2.53;;;6.90;99.90;;;;;;4952575;29;20071;-89
2022/05/09 02:26:11;;;;;;;14.05;3.08;;;6.80;99.90;;;;;;4958305;28;20086;-89
2022/05/09 02:28:37;;;;;;;11.52;3.38;;;6.80;99.90;;;;;;4974345;28;20093;-89
2022/05/09 02:31:03;;;;;;;8.32;2.78;;;6.80;99.90;;;;;;4987163;28;20039;-89
2022/05/09 02:33:28;;;;;;;12.55;2.33;;;6.70;99.90;;;;;;4994335;28;20085;-89
2022/05/09 02:35:54;;;;;;;12.90;3.70;;;6.70;99.90;;;;;;4977808;28;20070;-89
2022/05/09 02:38:21;;;;;;;13.70;3.33;;;6.70;99.90;;;;;;4994126;28;20046;-89
2022/05/09 02:40:47;;;;;;;14.27;3.45;;;6.70;99.90;;;;;;4993646;28;20046;-89
2022/05/09 02:43:13;;;;;;;9.57;2.72;;;6.70;99.90;;;;;;4992754;28;20668;-89
2022/05/09 02:45:41;;;;;;;7.95;2.40;;;6.60;99.90;;;;;;4977925;28;20041;-89
2022/05/09 02:48:07;;;;;;;11.02;3.03;;;6.60;99.90;;;;;;4983939;28;20114;-89
2022/05/09 02:50:33;;;;;;;9.88;2.67;;;6.50;99.90;;;;;;4973801;28;20130;-90
2022/05/09 02:52:58;;;;;;;9.07;2.35;;;6.50;99.90;;;;;;4974238;28;20189;-89
2022/05/09 02:55:24;;;;;;;11.52;3.08;;;6.40;99.90;;;;;;4974951;28;20458;-89
2022/05/09 02:57:50;;;;;;;10.60;2.97;;;6.40;99.90;;;;;;4993929;28;20453;-89
2022/05/09 03:00:25;;;;;;;11.00;3.28;;;6.40;99.90;;;;;;4974028;28;20594;-89
2022/05/09 03:05:39;;;;;;;12.38;2.97;;;6.30;99.90;;;;;;4989364;28;20035;-89
2022/05/09 03:08:05;;;;;;;8.20;2.90;;;6.30;99.90;;;;;;4972464;28;20042;-89
2022/05/09 03:10:31;;;;;;;10.52;3.22;;;6.30;99.90;;;;;;4992836;28;20050;-89
2022/05/09 03:13:02;;;;;;;10.15;3.05;;;6.30;99.90;;;;;;4981477;28;20039;-89
2022/05/09 03:15:30;;;;;;;11.88;3.13;;;6.20;99.90;;;;;;4958375;28;20050;-89
2022/05/09 03:17:55;;;;;;;9.23;4.03;;;6.20;99.90;;;;;;4957804;28;20046;-89
2022/05/09 03:20:22;;;;;;;12.00;3.25;;;6.20;99.90;;;;;;4957576;28;20046;-89
2022/05/09 03:22:48;;;;;;;11.70;3.50;;;6.20;99.90;;;;;;4973522;28;20456;-90
2022/05/09 03:25:14;;;;;;;11.80;3.90;;;6.20;99.90;;;;;;4976354;28;20053;-89
2022/05/09 03:27:39;;;;;;;10.38;3.33;;;6.20;99.90;;;;;;4993571;28;20034;-89
2022/05/09 03:30:07;;;;;;;13.80;3.83;;;6.10;99.90;;;;;;4992190;28;20508;-90
2022/05/09 03:32:34;;;;;;;12.13;3.67;;;6.20;99.90;;;;;;4977271;28;20039;-89
2022/05/09 03:35:00;;;;;;;10.07;2.90;;;6.10;99.90;;;;;;4993111;28;20042;-89
2022/05/09 03:37:25;;;;;;;10.60;3.00;;;6.00;99.90;;;;;;4985997;28;20089;-89
2022/05/09 03:39:51;;;;;;;8.45;2.70;;;6.00;99.90;;;;;;4973371;28;20549;-90
2022/05/09 03:42:16;;;;;;;9.88;3.30;;;5.90;99.90;;;;;;4972814;28;20035;-89
2022/05/09 03:44:42;;;;;;;9.15;3.15;;;5.90;99.90;;;;;;4985850;28;20030;-88
2022/05/09 03:47:07;;;;;;;7.78;3.17;;;5.90;99.90;;;;;;4993041;28;20103;-89
2022/05/09 03:49:33;;;;;;;12.45;3.30;;;5.80;99.90;;;;;;4974286;28;20035;-90
2022/05/09 03:51:59;;;;;;;9.15;3.33;;;5.80;99.90;;;;;;4973318;28;20118;-90
2022/05/09 03:54:25;;;;;;;11.43;3.35;;;5.80;99.90;;;;;;4976985;28;20038;-90
2022/05/09 03:56:51;;;;;;;10.98;3.58;;;5.70;99.90;;;;;;4977081;28;20057;-90
2022/05/09 03:59:16;;;;;;;10.02;3.22;;;5.70;99.90;;;;;;4992478;28;20043;-89
2022/05/09 04:01:42;;;;;;;13.35;3.47;;;5.70;99.90;;;;;;4984911;28;20109;-88
2022/05/09 04:04:08;;;;;;;10.32;3.33;;;5.80;99.90;;;;;;4994200;28;20573;-90
2022/05/09 04:06:33;;;;;;;12.48;3.88;;;5.80;99.90;;;;;;4970242;28;20041;-90
2022/05/09 04:08:59;;;;;;;12.98;3.85;;;5.80;99.90;;;;;;4957217;28;20045;-91
2022/05/09 04:11:24;;;;;;;13.93;3.53;;;5.80;99.90;;;;;;4972387;28;20584;-90
2022/05/09 04:13:50;;;;;;;11.23;4.35;;;5.80;99.90;;;;;;4981076;28;20108;-90
2022/05/09 04:19:00;;;;;;;11.02;4.25;;;5.80;99.90;;;;;;4991342;28;20054;-90
2022/05/09 04:21:26;;;;;;;10.52;3.80;;;5.80;99.90;;;;;;4991811;28;20084;-91
2022/05/09 04:23:58;;;;;;;9.93;3.63;;;5.80;99.90;;;;;;4992078;28;20575;-91
2022/05/09 04:26:24;;;;;;;9.73;3.85;;;5.80;99.90;;;;;;4983667;28;20077;-91
2022/05/09 04:28:50;;;;;;;14.73;4.35;;;5.80;99.90;;;;;;4991291;28;20117;-90
2022/05/09 04:31:16;;;;;;;15.27;4.47;;;5.80;99.90;;;;;;4990626;28;20468;-90
2022/05/09 04:33:42;;;;;;;11.15;4.18;;;5.80;99.90;;;;;;4991178;28;20550;-91
2022/05/09 04:36:08;;;;;;;13.75;4.10;;;5.90;99.90;;;;;;4991374;28;20038;-90
2022/05/09 04:38:35;;;;;;;10.38;3.75;;;5.80;99.90;;;;;;4991107;28;20052;-90
2022/05/09 04:41:02;;;;;;;12.30;4.70;;;5.90;99.90;;;;;;4991185;28;20050;-91
2022/05/09 04:43:28;;;;;;;12.93;4.13;;;5.90;99.90;;;;;;4982648;28;20070;-88
2022/05/09 04:45:54;;;;;;;15.32;4.93;;;5.90;99.90;;;;;;4956010;28;20077;-88
2022/05/09 04:48:21;;;;;;;13.95;3.97;;;6.00;99.90;;;;;;4971994;28;20089;-88
2022/05/09 04:50:48;;;;;;;11.93;3.90;;;6.00;99.90;;;;;;4971719;28;20049;-88
2022/05/09 04:53:13;;;;;;;14.50;4.75;;;6.10;99.90;;;;;;4972529;28;20046;-89
2022/05/09 04:55:40;;;;;;;18.85;5.18;;;6.10;99.90;;;;;;4971817;28;20047;-88
2022/05/09 04:58:06;;;;;;;16.77;4.55;;;6.20;99.90;;;;;;4972330;28;20122;-89
2022/05/09 05:00:32;;;;;;;13.50;5.30;;;6.20;99.90;;;;;;4981319;28;20146;-89
2022/05/09 05:02:58;;;;;;;12.38;4.50;;;6.30;99.90;;;;;;4991050;28;20105;-89
2022/05/09 05:05:25;;;;;;;13.88;4.40;;;6.30;99.90;;;;;;4991293;28;20037;-89
2022/05/09 05:07:51;;;;;;;12.02;4.85;;;6.30;99.90;;;;;;4973294;28;20046;-89
2022/05/09 05:10:18;;;;;;;12.20;4.20;;;6.20;99.90;;;;;;4971490;28;20038;-89
2022/05/09 05:12:44;;;;;;;13.50;4.65;;;6.30;99.90;;;;;;4976463;28;20046;-89
2022/05/09 05:15:09;;;;;;;11.55;4.20;;;6.30;99.90;;;;;;4975127;28;20053;-88
2022/05/09 05:17:37;;;;;;;17.17;4.82;;;6.40;99.90;;;;;;4991014;28;20125;-88
2022/05/09 05:20:09;;;;;;;12.88;4.30;;;6.40;99.90;;;;;;4990148;28;20520;-89
2022/05/09 05:22:37;;;;;;;15.20;4.65;;;6.50;99.90;;;;;;4991038;28;20499;-89
2022/05/09 05:25:03;;;;;;;15.90;4.93;;;6.50;99.90;;;;;;4983148;28;20043;-89
2022/05/09 05:27:29;;;;;;;14.35;4.30;;;6.50;99.90;;;;;;4971534;28;20449;-88
2022/05/09 05:29:57;;;;;;;19.33;4.95;;;6.60;99.90;;;;;;4971037;28;20563;-89
2022/05/09 05:32:24;;;;;;;11.73;4.82;;;6.70;99.90;;;;;;4983114;28;20042;-89
2022/05/09 05:34:50;;;;;;;14.13;5.05;;;6.80;99.90;;;;;;4991427;28;20042;-91
2022/05/09 05:37:17;;;;;;;18.23;6.45;;;7.00;99.90;;;;;;4968053;28;20524;-88
2022/05/09 05:39:44;;;;;;;16.20;5.85;;;7.10;99.90;;;;;;4955723;28;20089;-89
2022/05/09 05:42:11;;;;;;;20.30;6.93;;;7.20;99.90;;;;;;4971032;28;20134;-89
2022/05/09 05:44:39;;;;;;;15.98;6.18;;;7.40;99.90;;;;;;4968247;28;20038;-89
2022/05/09 05:47:07;;;;;;;18.85;5.88;;;7.50;99.90;;;;;;4991082;28;20092;-89
2022/05/09 05:49:34;;;;;;;20.65;5.97;;;7.60;99.90;;;;;;4972007;28;20038;-89
2022/05/09 05:52:03;;;;;;;17.48;6.00;;;7.80;99.90;;;;;;4989514;28;20045;-89
2022/05/09 05:54:36;;;;;;;16.38;5.50;;;7.90;99.90;;;;;;4993001;28;20042;-90
2022/05/09 05:57:03;;;;;;;;;;;8.00;99.90;;;;;;4994978;28;20145;-89
2022/05/09 05:59:29;;;;;;;21.52;6.75;;;8.20;99.90;;;;;;4994082;28;19918;-89
2022/05/09 06:01:54;;;;;;;16.85;6.95;;;8.20;99.90;;;;;;4993552;28;20459;-89
2022/05/09 06:04:20;;;;;;;15.40;6.45;;;8.40;99.90;;;;;;4993795;28;20121;-89
2022/05/09 06:06:47;;;;;;;16.70;5.85;;;8.50;99.90;;;;;;4978067;28;20416;-89
2022/05/09 06:09:13;;;;;;;17.60;5.85;;;8.60;99.90;;;;;;4993544;28;20730;-88
2022/05/09 06:11:40;;;;;;;16.58;6.35;;;8.80;99.90;;;;;;4976750;28;20125;-89
2022/05/09 06:14:07;;;;;;;19.67;6.53;;;8.90;99.90;;;;;;4992915;28;20543;-88
2022/05/09 06:16:33;;;;;;;19.65;6.35;;;9.00;99.90;;;;;;4988683;28;20480;-89
2022/05/09 06:19:00;;;;;;;21.42;6.35;;;9.20;99.90;;;;;;4974673;28;20109;-89
2022/05/09 06:21:26;;;;;;;21.70;6.43;;;9.30;99.90;;;;;;4974196;28;20066;-90
2022/05/09 06:23:52;;;;;;;21.48;7.70;;;9.40;99.90;;;;;;5004310;28;20068;-88
2022/05/09 06:26:18;;;;;;;17.08;6.88;;;9.50;99.90;;;;;;5010002;28;20038;-89
2022/05/09 06:28:43;;;;;;;18.40;6.65;;;9.70;99.90;;;;;;4977397;28;20081;-88
2022/05/09 06:31:09;;;;;;;21.35;7.03;;;9.70;99.90;;;;;;4993961;28;20038;-89
2022/05/09 06:33:34;;;;;;;20.75;7.18;;;9.90;99.90;;;;;;4995261;28;20034;-89
2022/05/09 06:36:03;;;;;;;22.17;7.78;;;10.00;99.90;;;;;;4993872;28;20501;-89
2022/05/09 06:38:29;;;;;;;23.30;7.00;;;10.10;99.90;;;;;;4977337;28;20047;-88
2022/05/09 06:40:55;;;;;;;18.83;7.47;;;10.20;99.90;;;;;;4993577;28;20043;-90
2022/05/09 06:43:23;;;;;;;16.13;6.65;;;10.30;99.90;;;;;;4993666;28;20416;-89
2022/05/09 06:45:52;;;;;;;17.27;7.07;;;10.50;99.90;;;;;;4986115;28;20047;-89
2022/05/09 06:48:18;;;;;;;22.67;7.57;;;10.60;99.90;;;;;;4974364;28;20456;-89
2022/05/09 06:50:44;;;;;;;19.15;8.02;;;10.70;99.90;;;;;;4957160;28;20042;-89
2022/05/09 06:53:11;;;;;;;18.83;7.25;;;10.80;99.90;;;;;;4958324;28;20054;-89
2022/05/09 06:55:37;;;;;;;18.17;7.10;;;10.90;99.90;;;;;;4958329;28;20112;-88
2022/05/09 06:58:08;;;;;;;20.08;8.02;;;11.10;99.90;;;;;;4973249;28;20493;-90
2022/05/09 07:00:35;;;;;;;20.17;7.03;;;11.20;99.90;;;;;;4962821;28;20038;-90
2022/05/09 07:03:00;;;;;;;19.27;7.53;;;11.30;99.90;;;;;;4993612;28;20129;-90
2022/05/09 07:05:26;;;;;;;17.52;8.40;;;11.40;99.90;;;;;;4976135;28;20118;-89
2022/05/09 07:07:52;;;;;;;20.00;7.53;;;11.60;99.90;;;;;;4993595;28;20488;-90
2022/05/09 07:10:19;;;;;;;20.35;7.90;;;11.60;99.90;;;;;;4983745;28;20081;-89
2022/05/09 07:12:55;;;;;;;16.50;7.25;;;11.70;99.90;;;;;;4991673;28;20050;-89
2022/05/09 07:15:25;;;;;;;16.23;8.07;;;11.90;99.90;;;;;;4991850;28;20049;-89
2022/05/09 07:17:51;;;;;;;19.80;8.25;;;12.00;99.90;;;;;;4973827;28;20078;-90
2022/05/09 07:20:20;;;;;;;22.88;8.50;;;12.10;99.90;;;;;;4973385;28;20047;-90
2022/05/09 07:22:50;;;;;;;19.83;7.35;;;12.20;99.90;;;;;;4988675;28;20100;-89
2022/05/09 07:25:17;;;;;;;15.32;7.60;;;12.30;99.90;;;;;;4993062;28;20065;-91
2022/05/09 07:27:43;;;;;;;17.35;7.63;;;12.50;99.90;;;;;;4977162;28;20050;-91
2022/05/09 07:30:14;;;;;;;18.95;7.47;;;12.60;99.90;;;;;;4957211;28;20042;-92
2022/05/09 07:32:40;;;;;;;21.02;8.20;;;12.60;99.90;;;;;;4973804;28;20050;-91
2022/05/09 07:35:08;;;;;;;17.25;7.35;;;12.80;99.90;;;;;;4989679;28;20113;-88
2022/05/09 07:37:34;;;;;;;17.70;7.47;;;12.90;99.90;;;;;;5009778;28;20026;-91
2022/05/09 07:40:00;;;;;;;18.40;7.63;;;13.00;99.90;;;;;;4986118;28;20045;-91
2022/05/09 07:42:26;;;;;;;20.80;6.93;;;13.20;99.90;;;;;;4980868;28;20042;-91
2022/05/09 07:44:55;;;;;;;15.30;6.38;;;13.30;99.90;;;;;;5001588;28;20018;-90
2022/05/09 07:47:21;;;;;;;16.13;7.07;;;13.40;99.90;;;;;;5008684;28;20091;-91
2022/05/09 07:49:47;;;;;;;18.15;6.45;;;13.50;99.90;;;;;;5005716;28;20050;-91
2022/05/09 07:52:12;;;;;;;18.85;6.93;;;13.60;99.90;;;;;;4997561;28;20041;-91
2022/05/09 07:54:38;;;;;;;13.35;6.10;;;13.80;99.90;;;;;;4996291;28;20035;-91
2022/05/09 07:57:04;;;;;;;18.40;6.43;;;13.80;99.90;;;;;;5001568;28;20072;-92
2022/05/09 07:59:30;;;;;;;17.95;6.63;;;13.90;99.90;;;;;;4994796;28;20403;-92
2022/05/09 08:01:56;;;;;;;15.20;6.45;;;14.00;99.90;;;;;;4993311;28;20046;-92
2022/05/09 08:04:22;;;;;;;21.65;7.10;;;14.20;99.90;;;;;;4983213;28;20054;-92
2022/05/09 08:06:48;;;;;;;16.30;6.75;;;14.30;99.90;;;;;;4992575;28;20133;-92
2022/05/09 08:09:14;;;;;;;18.60;6.65;;;14.40;99.90;;;;;;4971220;28;20540;-91
2022/05/09 08:11:39;;;;;;;15.88;6.63;;;14.50;99.90;;;;;;4956181;28;20036;-92
2022/05/09 08:14:06;;;;;;;17.88;6.45;;;14.60;99.90;;;;;;4972362;28;20520;-91
2022/05/09 08:16:33;;;;;;;16.75;6.72;;;14.70;99.90;;;;;;4956664;28;20050;-91
2022/05/09 08:18:59;;;;;;;17.00;6.85;;;14.80;99.90;;;;;;4972246;28;20126;-91
2022/05/09 08:21:25;;;;;;;15.77;7.38;;;14.90;99.90;;;;;;4991773;28;20134;-92
2022/05/09 08:23:51;;;;;;;16.00;6.47;;;15.00;99.90;;;;;;4991276;28;20045;-90
2022/05/09 08:26:21;;;;;;;20.55;7.38;;;15.10;99.00;;;;;;4992319;28;20046;-91
2022/05/09 08:28:48;;;;;;;17.20;6.63;;;15.20;98.30;;;;;;4990054;28;20406;-91
2022/05/09 08:31:18;;;;;;;14.63;6.75;;;15.30;98.90;;;;;;4983568;28;20042;-91
2022/05/09 08:33:45;;;;;;;14.55;6.30;;;15.40;99.60;;;;;;4991935;28;20042;-91
2022/05/09 08:36:10;;;;;;;14.57;5.93;;;15.60;99.90;;;;;;4985257;28;20442;-91
2022/05/09 08:38:42;;;;;;;15.95;5.65;;;15.70;97.10;;;;;;5108741;27;20392;-91
2022/05/09 08:41:12;;;;;;;15.55;5.50;;;15.80;96.90;;;;;;5090647;28;20188;-91
2022/05/09 08:44:08;;;;;;;14.38;5.13;;;16.00;95.00;;;;;;5080497;28;20036;-91
2022/05/09 08:46:44;;;;;;;15.23;6.70;;;16.00;94.40;;;;;;5079479;28;20052;-91
2022/05/09 08:49:16;;;;;;;16.75;6.40;;;16.20;94.90;;;;;;5069966;28;20036;-91
2022/05/09 08:51:55;;;;;;;15.95;6.07;;;16.30;95.70;;;;;;5070041;28;20036;-91
2022/05/09 08:54:21;;;;;;;12.23;4.60;;;16.40;95.70;;;;;;5070427;28;20580;-92
2022/05/09 08:56:51;;;;;;;13.10;4.13;;;16.60;90.50;;;;;;5053797;28;20060;-91
2022/05/09 08:59:24;;;;;;;14.82;4.47;;;16.60;81.80;;;;;;5053649;28;20090;-91
2022/05/09 09:01:58;;;;;;;14.75;5.30;;;16.70;81.30;;;;;;5070281;28;20505;-92
2022/05/09 09:04:30;;;;;;;13.70;5.32;;;16.80;88.50;;;;;;5070140;28;20048;-91
2022/05/09 09:07:17;;;;;;;13.52;5.22;;;17.00;88.60;;;;;;5070305;28;20408;-91
2022/05/09 09:10:01;;;;;;;13.55;4.35;;;17.10;89.10;;;;;;5070544;28;20056;-92
2022/05/09 09:12:48;;;;;;;14.95;4.38;;;17.20;84.80;;;;;;5069513;28;20048;-92
2022/05/09 09:15:25;;;;;;;14.80;4.68;;;17.40;79.40;;;;;;5070533;28;20052;-92
2022/05/09 09:18:25;;;;;;;15.57;5.60;;;17.50;74.80;;;;;;5053048;28;20470;-91
2022/05/09 09:21:01;;;;;;;15.10;5.03;;;17.60;74.70;;;;;;5052786;28;20078;-92
2022/05/09 09:23:47;;;;;;;17.73;4.00;;;17.70;73.20;;;;;;5069469;28;20066;-92
2022/05/09 09:26:25;;;;;;;11.68;4.63;;;17.70;73.20;;;;;;5070373;28;20068;-91
2022/05/09 09:29:03;;;;;;;13.60;4.88;;;17.80;71.00;;;;;;5052507;28;20037;-91
2022/05/09 09:31:34;;;;;;;17.05;4.50;;;17.80;70.00;;;;;;5052840;28;20040;-92
2022/05/09 09:34:13;;;;;;;14.75;5.07;;;17.90;69.20;;;;;;5069544;28;20640;-92
2022/05/09 09:36:45;;;;;;;13.90;5.25;;;18.00;70.40;;;;;;5057951;28;20079;-92
2022/05/09 09:39:19;;;;;;;12.93;4.22;;;18.10;73.70;;;;;;5053587;28;20123;-91
2022/05/09 09:41:46;;;;;;;15.23;4.43;;;18.30;72.60;;;;;;5051999;28;20545;-92
2022/05/09 09:44:12;;;;;;;14.93;4.03;;;18.40;74.30;;;;;;5069301;28;20040;-92
2022/05/09 09:47:04;;;;;;;12.55;4.25;;;18.60;68.50;;;;;;5069307;28;20044;-92
2022/05/09 09:49:36;;;;;;;12.85;4.28;;;18.70;68.40;;;;;;5030719;28;20101;-92
2022/05/09 09:52:02;;;;;;;12.07;3.70;;;18.80;66.10;;;;;;5071981;28;20042;-91
2022/05/09 09:54:34;;;;;;;14.18;4.28;;;18.80;62.70;;;;;;5058767;28;20036;-91
2022/05/09 09:57:18;;;;;;;19.02;3.70;;;18.90;63.40;;;;;;5056498;28;20048;-91
2022/05/09 09:59:45;;;;;;;13.05;3.80;;;19.00;66.00;;;;;;5053453;28;20044;-90
2022/05/09 10:02:22;;;;;;;14.25;3.97;;;19.00;63.30;;;;;;5055368;28;20036;-90
2022/05/09 10:04:48;;;;;;;11.60;3.58;;;19.10;61.80;;;;;;5038724;28;20405;-91
2022/05/09 10:07:26;;;;;;;12.70;3.63;;;19.20;61.20;;;;;;5038951;28;20082;-92
2022/05/09 10:10:17;;;;;;;12.70;3.72;;;19.20;59.00;;;;;;5073298;28;20036;-91
2022/05/09 10:12:48;;;;;;;11.50;3.70;;;19.30;58.80;;;;;;5045865;28;20048;-92
2022/05/09 10:15:35;;;;;;;12.25;3.60;;;19.40;59.10;;;;;;5039272;28;20040;-92
2022/05/09 10:18:21;;;;;;;10.38;3.20;;;19.60;58.70;;;;;;5055050;28;20101;-92
2022/05/09 10:20:50;;;;;;;13.25;3.75;;;19.70;57.00;;;;;;5055092;28;20040;-92
2022/05/09 10:26:16;;;;;;;12.45;3.78;;;19.90;57.10;;;;;;5055145;28;20040;-92
2022/05/09 10:28:52;;;;;;;12.30;3.63;;;20.10;58.40;;;;;;5055536;28;20050;-92
2022/05/09 10:31:29;;;;;;;10.50;2.97;;;20.10;57.30;;;;;;5054419;28;20040;-92
2022/05/09 10:34:20;;;;;;;12.30;3.35;;;20.10;56.90;;;;;;5038917;28;20371;-92
2022/05/09 10:36:51;;;;;;;19.02;3.40;;;20.20;55.90;;;;;;5054633;28;20063;-92
2022/05/09 10:39:23;;;;;;;12.05;3.45;;;20.20;55.00;;;;;;5055235;28;20036;-92
2022/05/09 10:41:57;;;;;;;8.93;2.90;;;20.30;55.70;;;;;;5037794;28;20024;-93
2022/05/09 10:44:28;;;;;;;11.77;3.53;;;20.40;56.50;;;;;;5036916;28;20316;-91
2022/05/09 10:47:15;;;;;;;10.23;3.30;;;20.60;55.50;;;;;;5043709;28;20048;-91
2022/05/09 10:50:15;;;;;;;13.07;3.40;;;20.70;53.90;;;;;;5046572;28;20053;-92
2022/05/09 10:52:48;;;;;;;10.63;2.88;;;20.70;53.40;;;;;;5051317;28;20052;-92
2022/05/09 10:55:26;;;;;;;11.75;3.08;;;20.90;53.70;;;;;;5054751;28;20412;-91
2022/05/09 10:58:28;;;;;;;11.43;2.80;;;20.90;52.40;;;;;;5054798;28;20036;-92
2022/05/09 11:01:07;;;;;;;10.60;3.05;;;20.90;53.50;;;;;;5024245;28;20036;-91
2022/05/09 11:03:34;;;;;;;9.98;2.95;;;21.10;55.20;;;;;;5034797;28;20041;-91
2022/05/09 11:06:17;;;;;;;9.85;3.20;;;21.20;53.50;;;;;;5036182;28;20040;-91
2022/05/09 11:09:20;;;;;;;11.45;3.45;;;21.30;52.20;;;;;;5054130;28;20048;-91
2022/05/09 11:11:58;;;;;;;;;;;21.40;52.30;;;;;;5054223;28;20113;-91
2022/05/09 11:14:47;;;;;;;13.43;4.05;;;21.40;52.50;;;;;;5036209;28;19920;-91
2022/05/09 11:17:41;;;;;;;11.02;3.30;;;21.50;52.10;;;;;;5054132;28;20406;-91
2022/05/09 11:20:31;;;;;;;12.73;3.60;;;21.50;51.80;;;;;;5053651;28;20097;-92
2022/05/09 11:23:20;;;;;;;10.27;3.05;;;21.50;51.80;;;;;;5037649;28;20036;-92
2022/05/09 11:26:04;;;;;;;10.30;3.30;;;21.60;51.10;;;;;;5036894;28;20051;-91
2022/05/09 11:28:59;;;;;;;10.48;3.20;;;21.80;51.10;;;;;;5053726;28;20041;-91
2022/05/09 11:31:51;;;;;;;11.57;3.30;;;21.70;50.10;;;;;;5023362;28;20102;-91
2022/05/09 11:34:48;;;;;;;12.10;3.63;;;21.80;53.70;;;;;;5053604;28;20032;-92
2022/05/09 11:37:18;;;;;;;10.65;2.80;;;21.90;52.60;;;;;;5036996;28;20067;-91
2022/05/09 11:40:07;;;;;;;19.08;3.60;;;22.00;53.20;;;;;;5037295;28;20041;-92
2022/05/09 11:45:58;;;;;;;10.88;3.15;;;22.30;50.70;;;;;;5069773;28;20040;-91
2022/05/09 11:49:01;;;;;;;9.63;2.35;;;22.40;49.40;;;;;;5044674;28;20040;-92
2022/05/09 11:51:44;;;;;;;12.93;2.97;;;22.60;51.30;;;;;;5036152;28;20048;-91
2022/05/09 11:54:15;;;;;;;8.95;3.13;;;22.60;52.00;;;;;;5053041;28;20399;-92
2022/05/09 11:56:49;;;;;;;11.00;2.67;;;22.70;50.10;;;;;;5054114;28;20037;-91
2022/05/09 11:59:21;;;;;;;8.73;3.00;;;22.70;49.70;;;;;;5033077;28;20033;-91
2022/05/09 12:02:06;;;;;;;11.45;2.63;;;22.80;48.80;;;;;;5052540;28;20402;-91
2022/05/09 12:04:41;;;;;;;9.95;3.50;;;22.90;48.40;;;;;;5017281;28;20033;-92
2022/05/09 12:07:26;;;;;;;9.88;2.92;;;22.90;47.90;;;;;;5036712;28;20067;-92
2022/05/09 12:10:15;;;;;;;10.15;3.00;;;23.00;49.90;;;;;;5035892;28;20589;-91
2022/05/09 12:12:54;;;;;;;9.25;2.60;;;23.00;48.40;;;;;;5052655;28;20569;-92
2022/05/09 12:15:23;;;;;;;9.68;2.72;;;23.00;48.00;;;;;;5042000;28;20522;-92
2022/05/09 12:18:23;;;;;;;10.52;3.13;;;23.10;48.00;;;;;;5042728;28;20040;-92
2022/05/09 12:20:49;;;;;;;13.13;3.40;;;23.20;49.20;;;;;;5065268;28;20033;-92
2022/05/09 12:23:39;;;;;;;10.48;3.08;;;23.30;48.40;;;;;;5046699;28;20051;-92
2022/05/09 12:26:06;;;;;;;11.18;3.17;;;23.30;48.20;;;;;;5052785;28;20498;-92
2022/05/09 12:28:39;;;;;;;9.38;2.90;;;23.30;46.80;;;;;;5052423;28;20036;-92
2022/05/09 12:31:30;;;;;;;9.80;2.53;;;23.40;47.00;;;;;;5036245;28;20052;-92
2022/05/09 12:33:56;;;;;;;7.97;2.15;;;23.50;47.20;;;;;;5035297;28;20101;-92
2022/05/09 12:36:32;;;;;;;10.40;2.90;;;23.70;47.80;;;;;;5036551;28;20040;-91
2022/05/09 12:39:24;;;;;;;9.73;3.05;;;24.00;47.00;;;;;;5036164;28;20055;-92
2022/05/09 12:41:53;;;;;;;11.15;3.00;;;24.30;47.50;;;;;;5069189;28;20037;-92
2022/05/09 12:44:26;;;;;;;8.65;2.67;;;24.50;46.40;;;;;;5070059;28;20525;-91
2022/05/09 12:47:02;;;;;;;10.25;2.90;;;24.60;46.20;;;;;;5052313;28;20075;-92
2022/05/09 12:49:36;;;;;;;9.38;2.80;;;24.70;45.10;;;;;;5036501;28;20049;-93
2022/05/09 12:52:03;;;;;;;9.45;2.75;;;24.80;46.00;;;;;;5052022;28;20397;-92
2022/05/09 12:54:30;;;;;;;10.60;2.65;;;24.80;45.80;;;;;;5053020;28;20044;-92
2022/05/09 12:57:01;;;;;;;9.57;2.60;;;24.80;45.60;;;;;;5035910;28;20043;-92
2022/05/09 12:59:28;;;;;;;8.93;2.45;;;24.80;44.80;;;;;;5033828;28;20079;-92
2022/05/09 13:02:01;;;;;;;11.13;2.47;;;24.70;47.00;;;;;;5033995;28;20043;-92
2022/05/09 13:04:30;;;;;;;8.90;2.63;;;24.60;46.70;;;;;;5050740;28;20367;-92
2022/05/09 13:07:07;;;;;;;8.70;2.80;;;24.50;46.60;;;;;;5050803;28;20067;-92
2022/05/09 13:09:44;;;;;;;9.05;2.50;;;24.50;46.00;;;;;;5033954;28;20510;-91
2022/05/09 13:12:23;;;;;;;10.05;3.15;;;24.60;45.90;;;;;;5049912;28;20056;-91
2022/05/09 13:15:03;;;;;;;9.45;2.80;;;24.50;44.60;;;;;;5035866;28;20047;-92
2022/05/09 13:17:38;;;;;;;9.80;2.63;;;24.50;47.20;;;;;;5035547;28;20128;-92